PWSweather.com
Personal Weather Stations
Station Observations
CANDIOTINO
Barrio Candioti Norte, Santa FeAR 3000

Barrio Candioti NorteSanta FeAR 3000

Lat: -31.632778, Lon: -60.695556

Elevation: 69

Station Type: WH-1081

http://www.eltiempoensantafe.com.ar

High Low Average
Temperature 80.6°F27.0°C 52.5°F11.4°C 65.0°F18.3°C
Dew Point 58.4°F14.7°C 46.4°F8.0°C 53.4°F11.9°C
Winds 6.9 mph 11.1 kmh 0.7 mph 1.1 kmh 3.0 mph NE4.8 kmh NE
Wind Gusts 13.0 mph20.9 kmh 3.1 mph5.0 kmh 8.0 mph12.9 kmh
Humidity 92% 43% 68%
Pressure 30.07 in1018.3 mb 29.83 in1010.2 mb -
Precipitation 0.00 in0.0 mm - -
Hour Temp Dew Point Humidity Winds Wind Gusts Pressure Precip Precip Rate Daily Precip Total
12:00 AM 57.2°F14.0°C 48.3°F9.1°C 72% 3.1 mph E5.0 kmh E 8.3 mph13.4 kmh 30.05 in1017.6 mb 0.00 in0.0 mm 0.00 in0.0 mm 0.00 in0.0 mm
12:15 AM 57.0°F13.9°C 48.5°F9.2°C 73% 1.6 mph NNE2.6 kmh NNE 6.9 mph11.1 kmh 30.05 in1017.6 mb 0.00 in0.0 mm 0.00 in0.0 mm 0.00 in0.0 mm
12:30 AM 56.8°F13.8°C 47.9°F8.8°C 72% 2.2 mph NE3.5 kmh NE 6.9 mph11.1 kmh 30.06 in1017.9 mb 0.00 in0.0 mm 0.00 in0.0 mm 0.00 in0.0 mm
12:45 AM 56.5°F13.6°C 47.6°F8.7°C 72% 2.2 mph N3.5 kmh N 6.0 mph9.7 kmh 30.06 in1017.9 mb 0.00 in0.0 mm 0.00 in0.0 mm 0.00 in0.0 mm
01:00 AM 56.1°F13.4°C 47.6°F8.7°C 73% 2.2 mph NNE3.5 kmh NNE 8.3 mph13.4 kmh 30.06 in1017.9 mb 0.00 in0.0 mm 0.00 in0.0 mm 0.00 in0.0 mm
01:15 AM 55.9°F13.3°C 47.4°F8.6°C 73% 1.6 mph NE2.6 kmh NE 8.3 mph13.4 kmh 30.06 in1017.9 mb 0.00 in0.0 mm 0.00 in0.0 mm 0.00 in0.0 mm
01:30 AM 55.6°F13.1°C 47.1°F8.4°C 73% 1.6 mph N2.6 kmh N 5.4 mph8.7 kmh 30.06 in1017.9 mb 0.00 in0.0 mm 0.00 in0.0 mm 0.00 in0.0 mm
01:45 AM 55.0°F12.8°C 46.6°F8.1°C 73% 2.2 mph NE3.5 kmh NE 6.9 mph11.1 kmh 30.06 in1017.9 mb 0.00 in0.0 mm 0.00 in0.0 mm 0.00 in0.0 mm
02:00 AM 54.5°F12.5°C 46.4°F8.0°C 74% 1.6 mph N2.6 kmh N 4.5 mph7.2 kmh 30.07 in1018.3 mb 0.00 in0.0 mm 0.00 in0.0 mm 0.00 in0.0 mm
02:15 AM 54.1°F12.3°C 46.4°F8.0°C 75% 0.7 mph N1.1 kmh N 4.5 mph7.2 kmh 30.06 in1017.9 mb 0.00 in0.0 mm 0.00 in0.0 mm 0.00 in0.0 mm
02:30 AM 54.0°F12.2°C 46.9°F8.3°C 77% 1.6 mph NNE2.6 kmh NNE 5.4 mph8.7 kmh 30.06 in1017.9 mb 0.00 in0.0 mm 0.00 in0.0 mm 0.00 in0.0 mm
02:45 AM 53.6°F12.0°C 47.3°F8.5°C 79% 1.6 mph NNW2.6 kmh NNW 3.8 mph6.1 kmh 30.05 in1017.6 mb 0.00 in0.0 mm 0.00 in0.0 mm 0.00 in0.0 mm
03:00 AM 53.4°F11.9°C 47.7°F8.7°C 81% 0.7 mph NNE1.1 kmh NNE 3.1 mph5.0 kmh 30.05 in1017.6 mb 0.00 in0.0 mm 0.00 in0.0 mm 0.00 in0.0 mm
03:15 AM 53.2°F11.8°C 47.9°F8.8°C 82% 2.2 mph NE3.5 kmh NE 4.5 mph7.2 kmh 30.04 in1017.3 mb 0.00 in0.0 mm 0.00 in0.0 mm 0.00 in0.0 mm
03:30 AM 53.1°F11.7°C 47.7°F8.7°C 82% 1.6 mph NE2.6 kmh NE 4.5 mph7.2 kmh 30.04 in1017.3 mb 0.00 in0.0 mm 0.00 in0.0 mm 0.00 in0.0 mm
03:45 AM 53.1°F11.7°C 48.0°F8.9°C 83% 1.6 mph NE2.6 kmh NE 4.5 mph7.2 kmh 30.03 in1016.9 mb 0.00 in0.0 mm 0.00 in0.0 mm 0.00 in0.0 mm
04:00 AM 53.1°F11.7°C 48.0°F8.9°C 83% 0.7 mph NE1.1 kmh NE 6.0 mph9.7 kmh 30.03 in1016.9 mb 0.00 in0.0 mm 0.00 in0.0 mm 0.00 in0.0 mm
04:15 AM 53.1°F11.7°C 48.0°F8.9°C 83% 2.2 mph NE3.5 kmh NE 4.5 mph7.2 kmh 30.02 in1016.6 mb 0.00 in0.0 mm 0.00 in0.0 mm 0.00 in0.0 mm
04:30 AM 53.1°F11.7°C 48.4°F9.1°C 84% 1.6 mph NE2.6 kmh NE 5.4 mph8.7 kmh 30.02 in1016.6 mb 0.00 in0.0 mm 0.00 in0.0 mm 0.00 in0.0 mm
04:45 AM 53.1°F11.7°C 48.4°F9.1°C 84% 1.6 mph NE2.6 kmh NE 5.4 mph8.7 kmh 30.01 in1016.3 mb 0.00 in0.0 mm 0.00 in0.0 mm 0.00 in0.0 mm
05:00 AM 52.9°F11.6°C 48.5°F9.2°C 85% 2.2 mph NE3.5 kmh NE 4.5 mph7.2 kmh 30.02 in1016.6 mb 0.00 in0.0 mm 0.00 in0.0 mm 0.00 in0.0 mm
05:15 AM 52.9°F11.6°C 48.5°F9.2°C 85% 2.2 mph NE3.5 kmh NE 4.5 mph7.2 kmh 30.01 in1016.3 mb 0.00 in0.0 mm 0.00 in0.0 mm 0.00 in0.0 mm
05:30 AM 52.7°F11.5°C 48.6°F9.2°C 86% 1.6 mph NNE2.6 kmh NNE 4.5 mph7.2 kmh 30.01 in1016.3 mb 0.00 in0.0 mm 0.00 in0.0 mm 0.00 in0.0 mm
05:45 AM 52.7°F11.5°C 48.6°F9.2°C 86% 1.6 mph NE2.6 kmh NE 3.8 mph6.1 kmh 30.01 in1016.3 mb 0.00 in0.0 mm 0.00 in0.0 mm 0.00 in0.0 mm
06:00 AM 52.5°F11.4°C 48.8°F9.3°C 87% 1.6 mph NE2.6 kmh NE 4.5 mph7.2 kmh 30.01 in1016.3 mb 0.00 in0.0 mm 0.00 in0.0 mm 0.00 in0.0 mm
06:15 AM 52.5°F11.4°C 48.8°F9.3°C 87% 1.6 mph NE2.6 kmh NE 4.5 mph7.2 kmh 30.02 in1016.6 mb 0.00 in0.0 mm 0.00 in0.0 mm 0.00 in0.0 mm
06:30 AM 52.5°F11.4°C 49.1°F9.5°C 88% 3.1 mph ENE5.0 kmh ENE 5.4 mph8.7 kmh 30.02 in1016.6 mb 0.00 in0.0 mm 0.00 in0.0 mm 0.00 in0.0 mm
06:45 AM 52.7°F11.5°C 49.3°F9.6°C 88% 1.6 mph NNE2.6 kmh NNE 6.0 mph9.7 kmh 30.02 in1016.6 mb 0.00 in0.0 mm 0.00 in0.0 mm 0.00 in0.0 mm
07:00 AM 52.5°F11.4°C 49.4°F9.7°C 89% 3.1 mph NE5.0 kmh NE 6.0 mph9.7 kmh 30.02 in1016.6 mb 0.00 in0.0 mm 0.00 in0.0 mm 0.00 in0.0 mm
07:15 AM 52.5°F11.4°C 49.7°F9.8°C 90% 0.7 mph ENE1.1 kmh ENE 4.5 mph7.2 kmh 30.02 in1016.6 mb 0.00 in0.0 mm 0.00 in0.0 mm 0.00 in0.0 mm
07:30 AM 52.5°F11.4°C 49.7°F9.8°C 90% 3.1 mph ENE5.0 kmh ENE 6.0 mph9.7 kmh 30.02 in1016.6 mb 0.00 in0.0 mm 0.00 in0.0 mm 0.00 in0.0 mm
07:45 AM 52.9°F11.6°C 50.3°F10.2°C 91% 3.1 mph ENE5.0 kmh ENE 6.0 mph9.7 kmh 30.02 in1016.6 mb 0.00 in0.0 mm 0.00 in0.0 mm 0.00 in0.0 mm
08:00 AM 53.4°F11.9°C 51.2°F10.7°C 92% 2.2 mph NE3.5 kmh NE 6.0 mph9.7 kmh 30.02 in1016.6 mb 0.00 in0.0 mm 0.00 in0.0 mm 0.00 in0.0 mm
08:15 AM 54.7°F12.6°C 52.1°F11.2°C 91% 2.2 mph NE3.5 kmh NE 5.4 mph8.7 kmh 30.02 in1016.6 mb 0.00 in0.0 mm 0.00 in0.0 mm 0.00 in0.0 mm
08:30 AM 55.8°F13.2°C 52.9°F11.6°C 90% 2.2 mph NE3.5 kmh NE 6.0 mph9.7 kmh 30.02 in1016.6 mb 0.00 in0.0 mm 0.00 in0.0 mm 0.00 in0.0 mm
08:45 AM 57.4°F14.1°C 53.6°F12.0°C 87% 3.8 mph NE6.1 kmh NE 8.3 mph13.4 kmh 30.02 in1016.6 mb 0.00 in0.0 mm 0.00 in0.0 mm 0.00 in0.0 mm
09:00 AM 57.9°F14.4°C 52.8°F11.6°C 83% 3.1 mph N5.0 kmh N 9.8 mph15.8 kmh 30.02 in1016.6 mb 0.00 in0.0 mm 0.00 in0.0 mm 0.00 in0.0 mm
09:15 AM 58.3°F14.6°C 52.1°F11.2°C 80% 3.8 mph NNE6.1 kmh NNE 9.2 mph14.8 kmh 30.03 in1016.9 mb 0.00 in0.0 mm 0.00 in0.0 mm 0.00 in0.0 mm
09:30 AM 59.4°F15.2°C 52.5°F11.4°C 78% 3.1 mph NE5.0 kmh NE 9.8 mph15.8 kmh 30.03 in1016.9 mb 0.00 in0.0 mm 0.00 in0.0 mm 0.00 in0.0 mm
09:45 AM 60.8°F16.0°C 52.8°F11.6°C 75% 3.8 mph NNE6.1 kmh NNE 7.6 mph12.2 kmh 30.03 in1016.9 mb 0.00 in0.0 mm 0.00 in0.0 mm 0.00 in0.0 mm
10:00 AM 61.5°F16.4°C 53.2°F11.8°C 74% 4.5 mph NE7.2 kmh NE 9.2 mph14.8 kmh 30.03 in1016.9 mb 0.00 in0.0 mm 0.00 in0.0 mm 0.00 in0.0 mm
10:15 AM 62.1°F16.7°C 53.7°F12.1°C 74% 3.8 mph NE6.1 kmh NE 8.3 mph13.4 kmh 30.04 in1017.3 mb 0.00 in0.0 mm 0.00 in0.0 mm 0.00 in0.0 mm
10:30 AM 63.9°F17.7°C 54.3°F12.4°C 71% 4.5 mph NE7.2 kmh NE 8.3 mph13.4 kmh 30.03 in1016.9 mb 0.00 in0.0 mm 0.00 in0.0 mm 0.00 in0.0 mm
10:45 AM 64.4°F18.0°C 54.4°F12.4°C 70% 4.5 mph NNE7.2 kmh NNE 7.6 mph12.2 kmh 30.03 in1016.9 mb 0.00 in0.0 mm 0.00 in0.0 mm 0.00 in0.0 mm
11:00 AM 66.4°F19.1°C 55.1°F12.8°C 67% 3.1 mph NE5.0 kmh NE 8.3 mph13.4 kmh 30.02 in1016.6 mb 0.00 in0.0 mm 0.00 in0.0 mm 0.00 in0.0 mm
11:15 AM 66.9°F19.4°C 55.2°F12.9°C 66% 2.2 mph NE3.5 kmh NE 7.6 mph12.2 kmh 30.03 in1016.9 mb 0.00 in0.0 mm 0.00 in0.0 mm 0.00 in0.0 mm
11:30 AM 68.7°F20.4°C 56.5°F13.6°C 65% 3.8 mph ENE6.1 kmh ENE 9.8 mph15.8 kmh 30.03 in1016.9 mb 0.00 in0.0 mm 0.00 in0.0 mm 0.00 in0.0 mm
11:45 AM 70.3°F21.3°C 56.7°F13.7°C 62% 3.1 mph NNE5.0 kmh NNE 7.6 mph12.2 kmh 30.02 in1016.6 mb 0.00 in0.0 mm 0.00 in0.0 mm 0.00 in0.0 mm
12:00 PM 71.1°F21.7°C 57.4°F14.1°C 62% 3.1 mph ENE5.0 kmh ENE 10.7 mph17.2 kmh 30.02 in1016.6 mb 0.00 in0.0 mm 0.00 in0.0 mm 0.00 in0.0 mm
12:15 PM 72.3°F22.4°C 57.7°F14.3°C 60% 3.1 mph NE5.0 kmh NE 7.6 mph12.2 kmh 30.01 in1016.3 mb 0.00 in0.0 mm 0.00 in0.0 mm 0.00 in0.0 mm
12:30 PM 73.2°F22.9°C 57.6°F14.2°C 58% 1.6 mph E2.6 kmh E 8.3 mph13.4 kmh 30.01 in1016.3 mb 0.00 in0.0 mm 0.00 in0.0 mm 0.00 in0.0 mm
12:45 PM 73.6°F23.1°C 57.4°F14.1°C 57% 2.2 mph NE3.5 kmh NE 9.2 mph14.8 kmh 30.00 in1015.9 mb 0.00 in0.0 mm 0.00 in0.0 mm 0.00 in0.0 mm
01:00 PM 75.6°F24.2°C 57.8°F14.3°C 54% 1.6 mph ENE2.6 kmh ENE 6.9 mph11.1 kmh 30.00 in1015.9 mb 0.00 in0.0 mm 0.00 in0.0 mm 0.00 in0.0 mm
01:15 PM 75.6°F24.2°C 57.8°F14.3°C 54% 3.8 mph NE6.1 kmh NE 9.2 mph14.8 kmh 29.98 in1015.2 mb 0.00 in0.0 mm 0.00 in0.0 mm 0.00 in0.0 mm
01:30 PM 76.6°F24.8°C 57.2°F14.0°C 51% 5.4 mph NE8.7 kmh NE 12.1 mph19.5 kmh 29.97 in1014.9 mb 0.00 in0.0 mm 0.00 in0.0 mm 0.00 in0.0 mm
01:45 PM 78.3°F25.7°C 57.0°F13.9°C 48% 1.6 mph NE2.6 kmh NE 7.6 mph12.2 kmh 29.97 in1014.9 mb 0.00 in0.0 mm 0.00 in0.0 mm 0.00 in0.0 mm
02:00 PM 78.3°F25.7°C 56.4°F13.6°C 47% 4.5 mph ENE7.2 kmh ENE 7.6 mph12.2 kmh 29.97 in1014.9 mb 0.00 in0.0 mm 0.00 in0.0 mm 0.00 in0.0 mm
02:15 PM 77.5°F25.3°C 55.8°F13.2°C 47% 5.4 mph NE8.7 kmh NE 10.7 mph17.2 kmh 29.94 in1013.9 mb 0.00 in0.0 mm 0.00 in0.0 mm 0.00 in0.0 mm
02:30 PM 77.4°F25.2°C 55.6°F13.1°C 47% 4.5 mph NE7.2 kmh NE 10.7 mph17.2 kmh 29.93 in1013.5 mb 0.00 in0.0 mm 0.00 in0.0 mm 0.00 in0.0 mm
02:45 PM 77.9°F25.5°C 56.1°F13.4°C 47% 3.1 mph ENE5.0 kmh ENE 11.4 mph18.3 kmh 29.91 in1012.9 mb 0.00 in0.0 mm 0.00 in0.0 mm 0.00 in0.0 mm
03:00 PM 77.5°F25.3°C 56.3°F13.5°C 48% 5.4 mph NE8.7 kmh NE 11.4 mph18.3 kmh 29.91 in1012.9 mb 0.00 in0.0 mm 0.00 in0.0 mm 0.00 in0.0 mm
03:15 PM 78.3°F25.7°C 56.4°F13.6°C 47% 5.4 mph ENE8.7 kmh ENE 11.4 mph18.3 kmh 29.90 in1012.5 mb 0.00 in0.0 mm 0.00 in0.0 mm 0.00 in0.0 mm
03:30 PM 78.3°F25.7°C 57.0°F13.9°C 48% 6.0 mph ENE9.7 kmh ENE 11.4 mph18.3 kmh 29.89 in1012.2 mb 0.00 in0.0 mm 0.00 in0.0 mm 0.00 in0.0 mm
03:45 PM 78.8°F26.0°C 57.5°F14.2°C 48% 3.8 mph E6.1 kmh E 10.7 mph17.2 kmh 29.88 in1011.9 mb 0.00 in0.0 mm 0.00 in0.0 mm 0.00 in0.0 mm
04:00 PM 80.4°F26.9°C 58.4°F14.7°C 47% 3.8 mph NE6.1 kmh NE 9.2 mph14.8 kmh 29.88 in1011.9 mb 0.00 in0.0 mm 0.00 in0.0 mm 0.00 in0.0 mm
04:15 PM 80.1°F26.7°C 56.8°F13.8°C 45% 6.0 mph NE9.7 kmh NE 11.4 mph18.3 kmh 29.87 in1011.5 mb 0.00 in0.0 mm 0.00 in0.0 mm 0.00 in0.0 mm
04:30 PM 80.6°F27.0°C 56.7°F13.7°C 44% 6.9 mph ENE11.1 kmh ENE 12.1 mph19.5 kmh 29.87 in1011.5 mb 0.00 in0.0 mm 0.00 in0.0 mm 0.00 in0.0 mm
04:45 PM 80.6°F27.0°C 56.1°F13.4°C 43% 3.1 mph ENE5.0 kmh ENE 11.4 mph18.3 kmh 29.86 in1011.2 mb 0.00 in0.0 mm 0.00 in0.0 mm 0.00 in0.0 mm
05:00 PM 80.1°F26.7°C 56.2°F13.4°C 44% 4.5 mph NE7.2 kmh NE 13.0 mph20.9 kmh 29.85 in1010.8 mb 0.00 in0.0 mm 0.00 in0.0 mm 0.00 in0.0 mm
05:15 PM 79.7°F26.5°C 56.5°F13.6°C 45% 5.4 mph N8.7 kmh N 11.4 mph18.3 kmh 29.85 in1010.8 mb 0.00 in0.0 mm 0.00 in0.0 mm 0.00 in0.0 mm
05:30 PM 79.5°F26.4°C 57.0°F13.9°C 46% 3.1 mph NE5.0 kmh NE 10.7 mph17.2 kmh 29.86 in1011.2 mb 0.00 in0.0 mm 0.00 in0.0 mm 0.00 in0.0 mm
05:45 PM 78.6°F25.9°C 57.9°F14.4°C 49% 3.1 mph NE5.0 kmh NE 9.8 mph15.8 kmh 29.86 in1011.2 mb 0.00 in0.0 mm 0.00 in0.0 mm 0.00 in0.0 mm
06:00 PM 78.1°F25.6°C 57.4°F14.1°C 49% 3.1 mph NE5.0 kmh NE 6.9 mph11.1 kmh 29.86 in1011.2 mb 0.00 in0.0 mm 0.00 in0.0 mm 0.00 in0.0 mm
06:15 PM 76.3°F24.6°C 56.9°F13.8°C 51% 4.5 mph ENE7.2 kmh ENE 9.8 mph15.8 kmh 29.85 in1010.8 mb 0.00 in0.0 mm 0.00 in0.0 mm 0.00 in0.0 mm
06:30 PM 74.3°F23.5°C 56.6°F13.7°C 54% 2.2 mph E3.5 kmh E 7.6 mph12.2 kmh 29.85 in1010.8 mb 0.00 in0.0 mm 0.00 in0.0 mm 0.00 in0.0 mm
06:45 PM 72.5°F22.5°C 55.9°F13.3°C 56% 3.1 mph ENE5.0 kmh ENE 7.6 mph12.2 kmh 29.84 in1010.5 mb 0.00 in0.0 mm 0.00 in0.0 mm 0.00 in0.0 mm
07:00 PM 71.6°F22.0°C 55.6°F13.1°C 57% 3.1 mph E5.0 kmh E 8.3 mph13.4 kmh 29.84 in1010.5 mb 0.00 in0.0 mm 0.00 in0.0 mm 0.00 in0.0 mm
07:15 PM 71.1°F21.7°C 54.6°F12.6°C 56% 3.8 mph NE6.1 kmh NE 9.2 mph14.8 kmh 29.84 in1010.5 mb 0.00 in0.0 mm 0.00 in0.0 mm 0.00 in0.0 mm
07:30 PM 70.5°F21.4°C 54.1°F12.3°C 56% 3.1 mph NE5.0 kmh NE 6.9 mph11.1 kmh 29.84 in1010.5 mb 0.00 in0.0 mm 0.00 in0.0 mm 0.00 in0.0 mm
07:45 PM 70.0°F21.1°C 54.1°F12.3°C 57% 3.8 mph NE6.1 kmh NE 7.6 mph12.2 kmh 29.83 in1010.2 mb 0.00 in0.0 mm 0.00 in0.0 mm 0.00 in0.0 mm
08:00 PM 70.2°F21.2°C 54.2°F12.3°C 57% 2.2 mph NE3.5 kmh NE 6.9 mph11.1 kmh 29.83 in1010.2 mb 0.00 in0.0 mm 0.00 in0.0 mm 0.00 in0.0 mm
08:15 PM 69.8°F21.0°C 54.9°F12.7°C 59% 3.1 mph NE5.0 kmh NE 8.3 mph13.4 kmh 29.84 in1010.5 mb 0.00 in0.0 mm 0.00 in0.0 mm 0.00 in0.0 mm
08:30 PM 69.4°F20.8°C 55.9°F13.3°C 62% 4.5 mph NE7.2 kmh NE 8.3 mph13.4 kmh 29.84 in1010.5 mb 0.00 in0.0 mm 0.00 in0.0 mm 0.00 in0.0 mm
08:45 PM 68.9°F20.5°C 56.2°F13.4°C 64% 3.1 mph NE5.0 kmh NE 9.2 mph14.8 kmh 29.84 in1010.5 mb 0.00 in0.0 mm 0.00 in0.0 mm 0.00 in0.0 mm
09:00 PM 68.5°F20.3°C 56.3°F13.5°C 65% 3.8 mph NE6.1 kmh NE 9.2 mph14.8 kmh 29.84 in1010.5 mb 0.00 in0.0 mm 0.00 in0.0 mm 0.00 in0.0 mm
09:15 PM 68.4°F20.2°C 56.6°F13.7°C 66% 3.1 mph NNE5.0 kmh NNE 6.9 mph11.1 kmh 29.84 in1010.5 mb 0.00 in0.0 mm 0.00 in0.0 mm 0.00 in0.0 mm
09:30 PM 68.4°F20.2°C 57.0°F13.9°C 67% 3.1 mph NNE5.0 kmh NNE 8.3 mph13.4 kmh 29.84 in1010.5 mb 0.00 in0.0 mm 0.00 in0.0 mm 0.00 in0.0 mm
09:45 PM 68.4°F20.2°C 57.0°F13.9°C 67% 3.8 mph NNE6.1 kmh NNE 8.3 mph13.4 kmh 29.85 in1010.8 mb 0.00 in0.0 mm 0.00 in0.0 mm 0.00 in0.0 mm
10:00 PM 68.0°F20.0°C 56.7°F13.7°C 67% 2.2 mph NNE3.5 kmh NNE 6.0 mph9.7 kmh 29.85 in1010.8 mb 0.00 in0.0 mm 0.00 in0.0 mm 0.00 in0.0 mm
10:15 PM 68.0°F20.0°C 57.1°F13.9°C 68% 2.2 mph NNE3.5 kmh NNE 9.2 mph14.8 kmh 29.85 in1010.8 mb 0.00 in0.0 mm 0.00 in0.0 mm 0.00 in0.0 mm
10:30 PM 67.5°F19.7°C 57.8°F14.3°C 71% 1.6 mph N2.6 kmh N 6.0 mph9.7 kmh 29.85 in1010.8 mb 0.00 in0.0 mm 0.00 in0.0 mm 0.00 in0.0 mm
10:45 PM 66.9°F19.4°C 57.6°F14.2°C 72% 2.2 mph N3.5 kmh N 8.3 mph13.4 kmh 29.85 in1010.8 mb 0.00 in0.0 mm 0.00 in0.0 mm 0.00 in0.0 mm
11:00 PM 66.4°F19.1°C 57.9°F14.4°C 74% 1.6 mph N2.6 kmh N 6.9 mph11.1 kmh 29.84 in1010.5 mb 0.00 in0.0 mm 0.00 in0.0 mm 0.00 in0.0 mm
11:15 PM 66.2°F19.0°C 58.1°F14.5°C 75% 3.1 mph N5.0 kmh N 8.3 mph13.4 kmh 29.85 in1010.8 mb 0.00 in0.0 mm 0.00 in0.0 mm 0.00 in0.0 mm
11:30 PM 66.2°F19.0°C 58.1°F14.5°C 75% 2.2 mph NNE3.5 kmh NNE 9.2 mph14.8 kmh 29.85 in1010.8 mb 0.00 in0.0 mm 0.00 in0.0 mm 0.00 in0.0 mm
11:45 PM 66.0°F18.9°C 58.3°F14.6°C 76% 1.6 mph N2.6 kmh N 6.9 mph11.1 kmh 29.85 in1010.8 mb 0.00 in0.0 mm 0.00 in0.0 mm 0.00 in0.0 mm